KMKL

Mc Kellar-Sipes Regional Airport

Jackson, Tennessee, USA
KMKL 212328Z 2200/2224 11006KT P6SM BKN250 FM220100 14010KT P6SM SKC FM221300 16012G20KT P6SM OVC250 FM221800 17016G22KT P6SM OVC025
Issued Valid From Valid To
Jan-21 @ 23:28 UTC
(39 minutes ago)
Jan-22 @ 00:00 UTC
(7 minutes ago)
Jan-23 @ 00:00 UTC
(in 24 hours)
Jan-22 @ 00:00 to Jan-22 @ 01:00
KMKL 212328Z 2200/2224 11006KT P6SM BKN250
Wind Visibility Clouds
110° at 6 knots Greater than 6 miles
  • Broken at 25,000' AGL
From Jan-22 @ 01:00 to Jan-22 @ 13:00
FM220100 14010KT P6SM SKC
Wind Visibility Clouds
140° at 10 knots Greater than 6 miles
  • Clear skies
From Jan-22 @ 13:00 to Jan-22 @ 18:00
FM221300 16012G20KT P6SM OVC250
Wind Visibility Clouds
160° at 12 knots
 Gusting to 20 knots
Greater than 6 miles
  • Overcast at 25,000' AGL
From Jan-22 @ 18:00 to Jan-23 @ 00:00
FM221800 17016G22KT P6SM OVC025
Wind Visibility Clouds
170° at 16 knots
 Gusting to 22 knots
Greater than 6 miles
  • Overcast at 2,500' AGL
KMKL 212328Z 2200/2224 11006KT P6SM BKN250 FM220100 14010KT P6SM SKC FM221300 16012G20KT P6SM OVC250 FM221800 17016G22KT P6SM OVC025
Issued Jan-21 @ 23:28 UTC
(39 minutes ago)
Valid From Jan-22 @ 00:00 UTC
(7 minutes ago)
Valid To Jan-23 @ 00:00 UTC
(in 24 hours)
Jan-22 @ 00:00 - Jan-22 @ 01:00
Wind Visibility
110° at 6 knots Greater than 6 miles
Clouds
  • Broken at 25,000' AGL
From Jan-22 @ 01:00 - Jan-22 @ 13:00
Wind Visibility
140° at 10 knots Greater than 6 miles
Clouds
  • Clear skies
From Jan-22 @ 13:00 - Jan-22 @ 18:00
Wind Visibility
160° at 12 knots
 Gusting to 20 knots
Greater than 6 miles
Clouds
  • Overcast at 25,000' AGL
From Jan-22 @ 18:00 - Jan-23 @ 00:00
Wind Visibility
170° at 16 knots
 Gusting to 22 knots
Greater than 6 miles
Clouds
  • Overcast at 2,500' AGL